CDT,Max TemperatureF,Mean TemperatureF,Min TemperatureF,Max Dew PointF,MeanDew PointF,Min DewpointF,Max Humidity, Mean Humidity, Min Humidity, Max Sea Level PressureIn, Mean Sea Level PressureIn, Min Sea Level PressureIn, Max VisibilityMiles, Mean VisibilityMiles, Min VisibilityMiles, Max Wind SpeedMPH, Mean Wind SpeedMPH, Max Gust SpeedMPH,PrecipitationIn, CloudCover, Events, WindDirDegrees
2013-8-1,97,85,73,77,74,71,94,70,45,30.03,29.98,29.91,10,8,3,13,5,15,0.00,1,,230
2013-8-2,94,84,74,77,74,72,100,76,52,29.99,29.96,29.93,10,7,1,21,4,72,0.00,1,,210
2013-8-3,94,84,74,76,74,72,94,73,52,30.05,30.00,29.98,10,7,1,15,4,28,0.00,1,Rain,199
2013-8-4,94,85,76,78,75,70,100,73,46,30.09,30.04,29.99,10,9,1,15,5,26,T,1,Rain,200
2013-8-5,95,85,75,77,75,71,94,72,49,30.06,30.01,29.96,10,10,6,15,6,30,0.00,2,,222
2013-8-6,95,86,76,77,76,74,100,75,49,30.00,29.95,29.90,10,10,7,17,8,24,0.00,1,,209
2013-8-7,95,86,77,78,76,74,94,73,52,29.97,29.93,29.87,9,8,6,16,8,22,0.00,1,,203
2013-8-8,95,85,74,79,74,71,97,75,52,29.96,29.90,29.87,8,5,0,13,5,18,0.00,3,Fog,206
2013-8-9,97,85,73,77,75,73,100,74,48,29.98,29.92,29.89,10,7,1,14,4,22,T,1,,136
2013-8-10,96,87,77,79,75,71,94,70,46,30.05,30.00,29.96,10,10,6,17,5,22,T,3,Rain,119
2013-8-11,92,84,76,77,75,72,94,75,56,30.07,30.04,30.01,10,10,6,23,7,26,T,2,,114
2013-8-12,94,85,75,77,75,73,94,75,56,30.09,30.04,29.99,10,9,3,16,5,32,0.04,2,Rain,191
2013-8-13,96,87,78,77,75,72,91,68,45,30.05,29.99,29.92,10,10,9,15,7,20,0.00,1,,225
2013-8-14,95,85,75,78,75,71,94,73,52,29.99,29.96,29.91,10,9,2,24,6,38,0.20,4,Rain,258
2013-8-15,86,80,74,75,73,69,94,78,61,30.02,29.97,29.91,10,7,5,12,4,,T,4,Rain,12
2013-8-16,95,84,73,74,70,65,94,67,39,29.99,29.95,29.90,10,8,4,13,4,35,0.00,2,,16
2013-8-17,93,82,70,66,63,58,79,56,32,30.00,29.96,29.91,10,10,10,17,9,23,0.00,0,,17
2013-8-18,92,81,70,72,68,65,90,66,41,30.02,29.98,29.95,10,9,5,14,6,25,T,2,,51
2013-8-19,96,84,71,73,68,60,93,63,33,30.04,29.99,29.94,10,9,4,15,6,21,0.00,0,,86
2013-8-20,88,81,73,75,73,68,100,82,63,30.04,30.00,29.96,10,9,3,15,4,,0.06,3,Rain-Thunderstorm,87
2013-8-21,96,86,75,76,73,68,94,69,44,30.08,30.03,30.00,10,10,9,15,7,,0.00,1,,84
2013-8-22,97,87,77,77,74,69,97,72,46,30.07,30.02,29.95,10,8,2,15,5,18,0.00,2,,86
2013-8-23,97,87,76,76,73,69,94,68,42,30.01,29.96,29.89,10,9,5,22,5,25,0.02,2,Rain,54
2013-8-24,96,87,77,76,72,67,91,66,41,30.03,29.98,29.94,10,10,4,22,12,26,0.00,2,,67
2013-8-25,87,82,76,75,73,72,88,77,65,30.11,30.05,30.01,10,9,2,22,14,31,0.06,6,Rain,78
2013-8-26,80,76,72,74,73,71,94,90,85,30.15,30.11,30.06,10,8,1,17,8,26,0.58,6,Rain,101
2013-8-27,93,83,73,74,71,67,94,68,41,30.12,30.07,30.03,10,10,8,13,5,16,0.00,1,,103
2013-8-28,98,86,73,74,71,66,100,70,39,30.09,30.03,29.98,10,9,4,13,4,26,0.00,1,,260
2013-8-29,96,86,75,76,73,68,94,69,44,30.06,30.02,29.96,10,8,4,17,6,22,0.00,1,,217
2013-8-30,95,84,73,75,73,71,94,72,49,30.03,29.98,29.92,10,7,2,15,5,18,0.00,1,,177
2013-8-31,94,84,73,75,72,68,100,72,44,29.96,29.92,29.86,10,6,0,14,4,18,0.00,0,Fog-Rain,179